Time;durP1;ratioP1;P1;durP2;ratioP2;P2;SDS_P1;SDS_P2;PMS_P1;PMS_P2;Temp;Humidity;BMP_temperature;BMP_pressure;BME280_temperature;BME280_humidity;BME280_pressure;Samples;Min_cycle;Max_cycle;Signal;HPM_P1;HPM_P2
2021/06/06 00:01:50;;;;;;;43.40;35.83;;;16.10;99.90;;;;;;5035681;28;20545;-78
2021/06/06 00:04:21;;;;;;;44.70;33.70;;;16.10;99.90;;;;;;5048401;28;20500;-78
2021/06/06 00:07:07;;;;;;;40.70;35.40;;;16.00;99.90;;;;;;5022185;28;20805;-78
2021/06/06 00:09:33;;;;;;;42.83;35.00;;;16.00;99.90;;;;;;5046150;28;20482;-79
2021/06/06 00:12:00;;;;;;;41.87;35.20;;;16.00;99.90;;;;;;5041938;28;20457;-78
2021/06/06 00:14:31;;;;;;;40.80;34.33;;;16.00;99.90;;;;;;5044679;28;20990;-78
2021/06/06 00:17:01;;;;;;;44.23;34.87;;;15.90;99.90;;;;;;5032280;28;20455;-79
2021/06/06 00:19:29;;;;;;;41.00;33.03;;;15.90;99.90;;;;;;5046245;28;20972;-78
2021/06/06 00:21:58;;;;;;;44.67;35.10;;;15.90;99.90;;;;;;5038004;28;20431;-78
2021/06/06 00:24:29;;;;;;;35.83;31.67;;;15.80;99.90;;;;;;5040520;28;20886;-78
2021/06/06 00:26:56;;;;;;;41.13;32.67;;;15.90;99.90;;;;;;5033485;28;20790;-78
2021/06/06 00:29:24;;;;;;;39.37;32.50;;;15.80;99.90;;;;;;5023112;28;20819;-79
2021/06/06 00:31:52;;;;;;;41.60;33.10;;;15.80;99.90;;;;;;5046001;28;20440;-78
2021/06/06 00:34:22;;;;;;;39.60;32.40;;;15.80;99.90;;;;;;5048127;28;20460;-78
2021/06/06 00:36:51;;;;;;;47.40;33.10;;;15.80;99.90;;;;;;5034704;28;20490;-78
2021/06/06 00:39:20;;;;;;;40.30;33.80;;;15.80;99.90;;;;;;5043306;28;20463;-78
2021/06/06 00:41:50;;;;;;;40.13;31.93;;;15.80;99.90;;;;;;5044497;28;20607;-78
2021/06/06 00:44:20;;;;;;;42.30;34.10;;;15.80;99.90;;;;;;5019812;28;20508;-78
2021/06/06 00:46:47;;;;;;;40.63;33.00;;;15.80;99.90;;;;;;5052504;28;20470;-78
2021/06/06 00:49:18;;;;;;;36.17;30.63;;;15.80;99.90;;;;;;5032504;28;20467;-78
2021/06/06 00:51:55;;;;;;;38.03;31.60;;;15.80;99.90;;;;;;5034128;28;20836;-78
2021/06/06 00:54:31;;;;;;;42.17;29.77;;;15.70;99.90;;;;;;5024672;28;20460;-78
2021/06/06 00:57:03;;;;;;;35.00;30.30;;;15.70;99.90;;;;;;5023564;28;20427;-79
2021/06/06 00:59:33;;;;;;;38.17;31.20;;;15.70;99.90;;;;;;5011688;28;20862;-78
2021/06/06 01:02:00;;;;;;;33.43;28.97;;;15.70;99.90;;;;;;5040389;28;20518;-77
2021/06/06 01:04:27;;;;;;;36.70;30.70;;;15.70;99.90;;;;;;5054293;28;20462;-77
2021/06/06 01:06:55;;;;;;;39.43;31.50;;;15.70;99.90;;;;;;5033984;28;20443;-79
2021/06/06 01:09:27;;;;;;;35.37;31.70;;;15.70;99.90;;;;;;5051669;28;20481;-78
2021/06/06 01:12:15;;;;;;;35.67;31.67;;;15.60;99.90;;;;;;5037256;28;20432;-78
2021/06/06 01:15:02;;;;;;;41.83;32.40;;;15.70;99.90;;;;;;5036732;28;20498;-78
2021/06/06 01:17:42;;;;;;;38.77;32.20;;;15.70;99.90;;;;;;5025048;28;20481;-79
2021/06/06 01:20:22;;;;;;;38.53;33.03;;;15.60;99.90;;;;;;5051651;28;20532;-78
2021/06/06 01:22:55;;;;;;;44.60;34.40;;;15.70;99.90;;;;;;5031017;28;20475;-78
2021/06/06 01:25:42;;;;;;;39.27;32.03;;;15.70;99.90;;;;;;5017488;28;20551;-78
2021/06/06 01:28:17;;;;;;;49.37;37.20;;;15.70;99.90;;;;;;5042257;28;20455;-78
2021/06/06 01:30:49;;;;;;;40.83;34.57;;;15.60;99.90;;;;;;5027329;28;20494;-78
2021/06/06 01:33:21;;;;;;;45.17;37.27;;;15.60;99.90;;;;;;5042074;28;20530;-78
2021/06/06 01:35:53;;;;;;;49.00;37.73;;;15.60;99.90;;;;;;5025904;28;21031;-78
2021/06/06 01:38:35;;;;;;;44.77;36.07;;;15.60;99.90;;;;;;5029819;28;20541;-78
2021/06/06 01:41:09;;;;;;;49.50;39.87;;;15.60;99.90;;;;;;5034084;28;20487;-78
2021/06/06 01:43:41;;;;;;;47.57;36.67;;;15.60;99.90;;;;;;5053353;28;20427;-78
2021/06/06 01:46:15;;;;;;;46.70;37.53;;;15.60;99.90;;;;;;5032472;28;20878;-77
2021/06/06 01:48:43;;;;;;;49.13;37.37;;;15.60;99.90;;;;;;5057777;28;20466;-78
2021/06/06 01:51:27;;;;;;;50.27;37.70;;;15.50;99.90;;;;;;5033163;28;20475;-78
2021/06/06 01:54:00;;;;;;;47.40;38.60;;;15.50;99.90;;;;;;5050492;28;20443;-78
2021/06/06 01:56:31;;;;;;;45.40;36.20;;;15.50;99.90;;;;;;5014786;28;20440;-78
2021/06/06 01:59:04;;;;;;;47.03;36.90;;;15.50;99.90;;;;;;5030072;28;20471;-78
2021/06/06 02:01:43;;;;;;;48.23;35.43;;;15.50;99.90;;;;;;5017943;28;20985;-78
2021/06/06 02:04:12;;;;;;;46.90;36.63;;;15.50;99.90;;;;;;5024733;28;20542;-78
2021/06/06 02:07:01;;;;;;;50.03;36.00;;;15.60;99.90;;;;;;5036754;28;20945;-78
2021/06/06 02:09:41;;;;;;;47.70;36.20;;;15.50;99.90;;;;;;5020932;28;20467;-78
2021/06/06 02:12:28;;;;;;;45.20;36.50;;;15.50;99.90;;;;;;5031525;28;20450;-78
2021/06/06 02:15:26;;;;;;;49.87;38.60;;;15.50;99.90;;;;;;5010765;28;20468;-79
2021/06/06 02:18:08;;;;;;;45.93;35.40;;;15.50;99.90;;;;;;5046828;28;20482;-78
2021/06/06 02:20:41;;;;;;;44.20;33.47;;;15.50;99.90;;;;;;5041588;28;20468;-78
2021/06/06 02:23:09;;;;;;;44.50;36.20;;;15.50;99.90;;;;;;5046704;28;20514;-78
2021/06/06 02:25:40;;;;;;;45.93;34.67;;;15.50;99.90;;;;;;5031276;28;20463;-78
2021/06/06 02:28:37;;;;;;;49.97;34.93;;;15.50;99.90;;;;;;5030913;28;20473;-78
2021/06/06 02:31:28;;;;;;;47.40;35.03;;;15.40;99.90;;;;;;5016708;28;20476;-77
2021/06/06 02:34:26;;;;;;;44.80;36.30;;;15.40;99.90;;;;;;5034411;28;20467;-79
2021/06/06 02:36:59;;;;;;;49.03;36.13;;;15.40;99.90;;;;;;5035657;28;20447;-78
2021/06/06 02:39:37;;;;;;;48.10;36.73;;;15.40;99.90;;;;;;5036957;28;20483;-78
2021/06/06 02:42:15;;;;;;;46.20;32.87;;;15.40;99.90;;;;;;5050120;28;20494;-79
2021/06/06 02:45:01;;;;;;;42.00;33.33;;;15.30;99.90;;;;;;5051980;28;21173;-78
2021/06/06 02:47:35;;;;;;;35.77;28.67;;;15.40;99.90;;;;;;5054499;28;20447;-78
2021/06/06 02:50:31;;;;;;;33.53;27.90;;;15.30;99.90;;;;;;5033893;28;20466;-78
2021/06/06 02:53:11;;;;;;;38.77;28.50;;;15.40;99.90;;;;;;5021817;28;20998;-78
2021/06/06 02:55:51;;;;;;;34.13;27.17;;;15.30;99.90;;;;;;5045316;28;20461;-78
2021/06/06 02:58:28;;;;;;;33.53;27.30;;;15.30;99.90;;;;;;5012402;28;20466;-79
2021/06/06 03:01:07;;;;;;;31.50;25.43;;;15.30;99.90;;;;;;5043478;28;20562;-78
2021/06/06 03:03:39;;;;;;;35.90;25.70;;;15.30;99.90;;;;;;5039753;28;20691;-78
2021/06/06 03:07:01;;;;;;;33.20;24.60;;;15.30;99.90;;;;;;5064346;28;20998;-78
2021/06/06 03:09:29;;;;;;;26.40;22.80;;;15.20;99.90;;;;;;5081803;28;20521;-78
2021/06/06 03:12:04;;;;;;;28.33;23.00;;;15.20;99.90;;;;;;5081331;28;20441;-78
2021/06/06 03:14:39;;;;;;;29.83;23.60;;;15.20;99.90;;;;;;5085275;28;20804;-77
2021/06/06 03:17:35;;;;;;;29.93;24.07;;;15.20;99.90;;;;;;5064750;28;20840;-78
2021/06/06 03:20:21;;;;;;;28.80;23.00;;;15.20;99.90;;;;;;5076026;28;20461;-78
2021/06/06 03:22:51;;;;;;;28.70;23.27;;;15.20;99.90;;;;;;5062012;28;21015;-78
2021/06/06 03:25:45;;;;;;;29.03;22.80;;;15.20;99.90;;;;;;5073434;28;20450;-78
2021/06/06 03:28:23;;;;;;;30.10;24.67;;;15.10;99.90;;;;;;5089386;28;20501;-79
2021/06/06 03:31:02;;;;;;;31.50;25.43;;;15.10;99.90;;;;;;5065080;28;20458;-78
2021/06/06 03:33:58;;;;;;;35.53;26.13;;;15.10;99.90;;;;;;5087404;28;20435;-78
2021/06/06 03:36:46;;;;;;;35.43;27.17;;;15.10;99.90;;;;;;5079261;28;20517;-78
2021/06/06 03:39:33;;;;;;;36.43;29.10;;;15.10;99.90;;;;;;5078459;28;20473;-78
2021/06/06 03:42:04;;;;;;;39.20;30.20;;;15.10;99.90;;;;;;5074185;28;20430;-77
2021/06/06 03:44:34;;;;;;;35.33;26.63;;;15.00;99.90;;;;;;5080425;28;20468;-78
2021/06/06 03:47:02;;;;;;;32.40;27.67;;;15.00;99.90;;;;;;5072858;28;20465;-78
2021/06/06 03:49:35;;;;;;;29.90;26.20;;;15.00;99.90;;;;;;5072405;28;20537;-78
2021/06/06 03:52:05;;;;;;;28.77;24.47;;;15.00;99.90;;;;;;5071630;28;20888;-78
2021/06/06 03:54:33;;;;;;;29.97;24.70;;;15.00;99.90;;;;;;5056021;28;21204;-78
2021/06/06 03:57:03;;;;;;;32.47;25.07;;;15.00;99.90;;;;;;5081043;28;20456;-78
2021/06/06 03:59:32;;;;;;;31.20;25.17;;;15.10;99.90;;;;;;5069273;28;20990;-77
2021/06/06 04:02:00;;;;;;;30.27;23.57;;;15.10;99.90;;;;;;5058550;28;20438;-78
2021/06/06 04:04:29;;;;;;;29.53;25.10;;;15.10;99.90;;;;;;5096892;28;20894;-78
2021/06/06 04:07:04;;;;;;;30.37;23.97;;;15.10;99.90;;;;;;5064587;28;20974;-78
2021/06/06 04:09:36;;;;;;;28.80;24.20;;;15.10;99.90;;;;;;5087014;28;20461;-78
2021/06/06 04:12:05;;;;;;;34.30;25.43;;;15.00;99.90;;;;;;5073196;28;20845;-79
2021/06/06 04:14:37;;;;;;;29.00;22.70;;;15.00;99.90;;;;;;5075049;28;20534;-79
2021/06/06 04:17:04;;;;;;;31.33;24.50;;;15.10;99.90;;;;;;5079770;28;20439;-79
2021/06/06 04:19:40;;;;;;;28.70;22.07;;;15.00;99.90;;;;;;5072039;28;20470;-79
2021/06/06 04:22:09;;;;;;;29.37;23.63;;;15.00;99.90;;;;;;5070233;28;20445;-79
2021/06/06 04:24:38;;;;;;;27.00;23.23;;;15.10;99.90;;;;;;5083625;28;20473;-79
2021/06/06 04:27:10;;;;;;;28.37;21.80;;;15.10;99.90;;;;;;5079772;28;20979;-79
2021/06/06 04:29:37;;;;;;;27.40;21.83;;;15.10;99.90;;;;;;5074091;28;20458;-77
2021/06/06 04:32:14;;;;;;;25.80;21.53;;;15.00;99.90;;;;;;5083423;28;20433;-79
2021/06/06 04:34:44;;;;;;;27.57;22.63;;;15.00;99.90;;;;;;5092846;28;20465;-79
2021/06/06 04:37:14;;;;;;;25.27;21.60;;;15.00;99.90;;;;;;5063632;28;20461;-79
2021/06/06 04:39:42;;;;;;;22.77;19.20;;;15.00;99.90;;;;;;5091286;28;20471;-79
2021/06/06 04:42:19;;;;;;;23.87;19.70;;;15.00;99.90;;;;;;5092183;28;20435;-78
2021/06/06 04:44:50;;;;;;;27.17;21.07;;;15.00;99.90;;;;;;5077950;28;20473;-78
2021/06/06 04:47:18;;;;;;;25.30;21.47;;;15.00;99.90;;;;;;5075384;28;20458;-76
2021/06/06 04:50:10;;;;;;;28.63;21.17;;;15.00;99.90;;;;;;5072146;28;20523;-76
2021/06/06 04:52:38;;;;;;;24.70;22.03;;;15.00;99.90;;;;;;5071294;28;20499;-77
2021/06/06 04:55:13;;;;;;;25.90;22.20;;;15.00;99.90;;;;;;5083792;28;20466;-79
2021/06/06 04:57:44;;;;;;;26.63;20.80;;;15.00;99.90;;;;;;5083804;28;20527;-77
2021/06/06 05:00:20;;;;;;;26.07;20.30;;;15.00;99.90;;;;;;5055092;28;20541;-78
2021/06/06 05:02:47;;;;;;;29.53;21.27;;;15.00;99.90;;;;;;5072016;28;20420;-79
2021/06/06 05:05:20;;;;;;;27.60;22.30;;;15.00;99.90;;;;;;5064285;28;20836;-79
2021/06/06 05:07:57;;;;;;;24.50;21.03;;;15.00;99.90;;;;;;5084470;28;20460;-79
2021/06/06 05:10:27;;;;;;;24.93;20.30;;;15.00;99.90;;;;;;5091709;28;20514;-79
2021/06/06 05:12:58;;;;;;;24.10;21.43;;;15.00;99.90;;;;;;5074456;28;20437;-79
2021/06/06 05:15:26;;;;;;;35.53;24.73;;;14.90;99.90;;;;;;5058891;28;20847;-78
2021/06/06 05:17:55;;;;;;;32.27;22.93;;;14.90;99.90;;;;;;5093142;28;20544;-79
2021/06/06 05:20:30;;;;;;;24.90;22.20;;;14.90;99.90;;;;;;5080710;28;20476;-79
2021/06/06 05:22:58;;;;;;;26.00;21.73;;;14.90;99.90;;;;;;5054972;28;20462;-79
2021/06/06 05:25:29;;;;;;;30.13;20.73;;;14.90;99.90;;;;;;5070760;28;20466;-78
2021/06/06 05:27:58;;;;;;;26.57;21.17;;;14.90;99.90;;;;;;5073686;28;20442;-79
2021/06/06 05:30:29;;;;;;;27.80;22.50;;;14.90;99.90;;;;;;5073102;28;20458;-79
2021/06/06 05:32:57;;;;;;;29.30;23.77;;;14.90;99.90;;;;;;5072065;28;20889;-79
2021/06/06 05:35:27;;;;;;;28.17;24.67;;;14.90;99.90;;;;;;5074292;28;20456;-79
2021/06/06 05:37:55;;;;;;;30.10;23.90;;;15.00;99.90;;;;;;5069701;28;20462;-79
2021/06/06 05:40:24;;;;;;;34.83;25.30;;;15.00;99.90;;;;;;5051412;28;20466;-79
2021/06/06 05:42:51;;;;;;;32.07;26.47;;;15.00;99.90;;;;;;5087607;28;20851;-79
2021/06/06 05:45:22;;;;;;;34.33;27.00;;;15.00;99.90;;;;;;5075531;28;20491;-79
2021/06/06 05:47:49;;;;;;;31.37;26.90;;;15.00;99.90;;;;;;5085355;28;20470;-79
2021/06/06 05:50:21;;;;;;;37.50;27.33;;;15.00;99.90;;;;;;5085568;28;20930;-77
2021/06/06 05:53:03;;;;;;;33.60;27.10;;;15.00;99.90;;;;;;5076551;28;20589;-77
2021/06/06 05:55:31;;;;;;;35.40;27.10;;;15.00;99.90;;;;;;5075132;28;21017;-79
2021/06/06 05:58:01;;;;;;;31.93;26.93;;;15.00;99.90;;;;;;5063749;28;20438;-77
2021/06/06 06:00:33;;;;;;;37.00;28.07;;;15.00;99.90;;;;;;5076055;28;20469;-77
2021/06/06 06:03:04;;;;;;;32.03;26.63;;;15.00;99.90;;;;;;5085470;28;20441;-77
2021/06/06 06:05:35;;;;;;;35.53;28.57;;;15.00;99.90;;;;;;5059766;28;20463;-79
2021/06/06 06:08:17;;;;;;;39.70;29.60;;;15.00;99.90;;;;;;5060685;28;20454;-77
2021/06/06 06:10:49;;;;;;;36.40;27.07;;;15.00;99.90;;;;;;5079013;28;20971;-77
2021/06/06 06:13:18;;;;;;;38.20;28.47;;;15.00;99.90;;;;;;5082787;28;20436;-79
2021/06/06 06:15:45;;;;;;;33.97;27.00;;;15.10;99.90;;;;;;5087818;28;20464;-78
2021/06/06 06:18:15;;;;;;;39.97;28.40;;;15.00;99.90;;;;;;5080593;28;20999;-79
2021/06/06 06:20:43;;;;;;;37.70;28.00;;;15.10;99.90;;;;;;5076655;28;20471;-79
2021/06/06 06:23:10;;;;;;;36.17;28.73;;;15.10;99.90;;;;;;5079071;28;20471;-79
2021/06/06 06:25:37;;;;;;;34.27;27.33;;;15.10;99.90;;;;;;5074546;28;20553;-79
2021/06/06 06:28:05;;;;;;;35.03;27.57;;;15.00;99.90;;;;;;5086257;28;20548;-79
2021/06/06 06:30:53;;;;;;;40.53;29.77;;;15.00;99.90;;;;;;5053204;28;20995;-79
2021/06/06 06:33:29;;;;;;;39.63;29.87;;;15.10;99.90;;;;;;5070680;28;20464;-79
2021/06/06 06:35:58;;;;;;;42.73;31.13;;;15.00;99.90;;;;;;5077538;28;20474;-79
2021/06/06 06:38:28;;;;;;;38.63;29.00;;;15.10;99.90;;;;;;5082314;28;20456;-79
2021/06/06 06:41:02;;;;;;;40.97;29.00;;;15.10;99.90;;;;;;5055925;28;20465;-79
2021/06/06 06:43:29;;;;;;;41.47;28.00;;;15.10;99.90;;;;;;5073251;28;20444;-79
2021/06/06 06:45:56;;;;;;;46.43;30.20;;;15.10;99.90;;;;;;5072759;28;20458;-78
2021/06/06 06:48:26;;;;;;;41.47;31.77;;;15.10;99.90;;;;;;5069779;28;20462;-79
2021/06/06 06:51:00;;;;;;;38.13;30.70;;;15.10;99.90;;;;;;5060796;28;20490;-79
2021/06/06 06:53:27;;;;;;;39.47;29.37;;;15.10;99.90;;;;;;5089102;28;20536;-79
2021/06/06 06:55:57;;;;;;;43.73;30.77;;;15.10;99.90;;;;;;5094763;28;20449;-79
2021/06/06 06:58:24;;;;;;;44.70;30.93;;;15.10;99.90;;;;;;5074948;28;20454;-79
2021/06/06 07:00:54;;;;;;;46.70;30.40;;;15.10;99.90;;;;;;5082934;28;20514;-79
2021/06/06 07:03:25;;;;;;;38.83;28.50;;;15.10;99.90;;;;;;5085754;28;20558;-79
2021/06/06 07:05:54;;;;;;;43.30;31.67;;;15.10;99.90;;;;;;5056085;28;20455;-79
2021/06/06 07:08:30;;;;;;;43.87;30.80;;;15.10;99.90;;;;;;5083187;28;20894;-79
2021/06/06 07:10:57;;;;;;;43.27;31.50;;;15.10;99.90;;;;;;5075442;28;20548;-79
2021/06/06 07:13:25;;;;;;;45.37;31.77;;;15.00;99.90;;;;;;5075794;28;20471;-79
2021/06/06 07:15:58;;;;;;;41.27;31.33;;;15.10;99.90;;;;;;5087299;28;20475;-79
2021/06/06 07:18:26;;;;;;;42.23;32.43;;;15.10;99.90;;;;;;5088824;28;20450;-79
2021/06/06 07:20:56;;;;;;;41.30;31.00;;;15.10;99.90;;;;;;5082465;28;20561;-79
2021/06/06 07:23:24;;;;;;;46.57;32.13;;;15.10;99.90;;;;;;5092572;28;20524;-79
2021/06/06 07:25:54;;;;;;;41.73;30.67;;;15.00;99.90;;;;;;5092552;28;20467;-79
2021/06/06 07:28:23;;;;;;;48.40;32.73;;;15.00;99.90;;;;;;5076850;28;20499;-79
2021/06/06 07:30:55;;;;;;;44.47;32.53;;;15.00;99.90;;;;;;5075305;28;20472;-77
2021/06/06 07:33:26;;;;;;;43.90;32.73;;;15.00;99.90;;;;;;5082441;28;20492;-79
2021/06/06 07:35:54;;;;;;;43.87;32.30;;;15.00;99.90;;;;;;5065725;28;20812;-78
2021/06/06 07:38:32;;;;;;;39.10;31.50;;;14.90;99.90;;;;;;5086006;28;20447;-76
2021/06/06 07:41:00;;;;;;;47.57;31.70;;;14.90;99.90;;;;;;5082342;28;20543;-75
2021/06/06 07:43:28;;;;;;;43.53;30.13;;;14.90;99.90;;;;;;5078791;28;20494;-79
2021/06/06 07:45:58;;;;;;;43.83;32.43;;;14.90;99.90;;;;;;5074056;28;20463;-78
2021/06/06 07:48:25;;;;;;;48.80;33.10;;;14.90;99.90;;;;;;5083702;28;20463;-79
2021/06/06 07:50:53;;;;;;;44.97;32.47;;;14.90;99.90;;;;;;5080298;28;20475;-80
2021/06/06 07:53:21;;;;;;;49.03;34.03;;;15.00;99.90;;;;;;5077008;28;20450;-80
2021/06/06 07:55:49;;;;;;;45.07;33.13;;;15.00;99.90;;;;;;5061782;28;20453;-79
2021/06/06 07:58:25;;;;;;;45.90;33.60;;;15.10;99.90;;;;;;5079553;28;20548;-79
2021/06/06 08:00:56;;;;;;;47.73;31.93;;;15.10;99.90;;;;;;5086861;28;20478;-79
2021/06/06 08:03:29;;;;;;;45.03;32.80;;;15.10;99.90;;;;;;5079361;28;20865;-79
2021/06/06 08:05:58;;;;;;;51.47;34.10;;;15.10;99.90;;;;;;5063059;28;20493;-79
2021/06/06 08:08:26;;;;;;;50.83;35.47;;;15.10;99.90;;;;;;5084475;28;20497;-79
2021/06/06 08:10:57;;;;;;;51.77;35.37;;;15.10;99.90;;;;;;5087173;28;20466;-79
2021/06/06 08:13:24;;;;;;;54.73;35.90;;;15.10;99.90;;;;;;5080165;28;20458;-79
2021/06/06 08:15:52;;;;;;;45.53;33.40;;;15.10;99.90;;;;;;5069675;28;20460;-79
2021/06/06 08:18:24;;;;;;;46.63;34.43;;;15.20;99.90;;;;;;5080805;28;20475;-79
2021/06/06 08:20:55;;;;;;;47.57;34.40;;;15.30;99.90;;;;;;5067294;28;20504;-79
2021/06/06 08:23:26;;;;;;;47.13;33.93;;;15.30;99.90;;;;;;5089629;28;20465;-79
2021/06/06 08:25:56;;;;;;;44.67;32.60;;;15.30;99.90;;;;;;5075298;28;21009;-79
2021/06/06 08:28:23;;;;;;;50.23;32.53;;;15.40;99.90;;;;;;5080435;28;20895;-78
2021/06/06 08:30:53;;;;;;;46.73;32.07;;;15.30;99.90;;;;;;5060036;28;20900;-78
2021/06/06 08:33:25;;;;;;;48.00;31.80;;;15.40;99.90;;;;;;5074070;28;20873;-79
2021/06/06 08:35:56;;;;;;;43.13;30.70;;;15.50;99.90;;;;;;5081077;28;20495;-78
2021/06/06 08:38:27;;;;;;;43.90;31.37;;;15.50;99.90;;;;;;5087246;28;20491;-78
2021/06/06 08:41:00;;;;;;;43.53;31.87;;;15.40;99.90;;;;;;5088558;28;20477;-77
2021/06/06 08:43:46;;;;;;;40.23;29.53;;;15.40;99.90;;;;;;5074885;28;20528;-79
2021/06/06 08:46:16;;;;;;;48.50;33.67;;;15.40;99.90;;;;;;5052052;28;20481;-78
2021/06/06 08:48:47;;;;;;;51.00;34.90;;;15.40;99.90;;;;;;5069306;28;20456;-78
2021/06/06 08:51:33;;;;;;;55.23;37.80;;;15.40;99.90;;;;;;5074956;28;20478;-79
2021/06/06 08:54:22;;;;;;;53.90;36.27;;;15.40;99.90;;;;;;5076392;28;20434;-78
2021/06/06 08:56:57;;;;;;;60.20;38.27;;;15.30;99.90;;;;;;5083187;28;20557;-79
2021/06/06 08:59:41;;;;;;;54.83;37.27;;;15.30;99.90;;;;;;5078486;28;20472;-78
2021/06/06 09:02:34;;;;;;;57.87;40.97;;;15.30;99.90;;;;;;5076965;28;21113;-78
2021/06/06 09:05:04;;;;;;;62.03;43.20;;;15.20;99.90;;;;;;5083434;28;20511;-78
2021/06/06 09:07:44;;;;;;;59.63;42.37;;;15.30;99.90;;;;;;5083995;28;20601;-79
2021/06/06 09:10:28;;;;;;;58.97;41.07;;;15.30;99.90;;;;;;5087915;28;20525;-79
2021/06/06 09:13:00;;;;;;;55.63;39.93;;;15.30;99.90;;;;;;5081969;28;20425;-79
2021/06/06 09:15:28;;;;;;;66.03;44.27;;;15.40;99.90;;;;;;5064938;28;20547;-79
2021/06/06 09:18:01;;;;;;;65.77;41.53;;;15.50;99.90;;;;;;5072281;28;20446;-79
2021/06/06 09:20:40;;;;;;;62.53;40.43;;;15.50;99.90;;;;;;5071158;28;20559;-79
2021/06/06 09:23:24;;;;;;;69.10;42.50;;;15.50;99.90;;;;;;5079313;28;20435;-79
2021/06/06 09:26:11;;;;;;;65.00;42.73;;;15.60;99.90;;;;;;5065206;28;20878;-79
2021/06/06 09:28:42;;;;;;;64.13;43.20;;;15.60;99.90;;;;;;5080102;28;20446;-78
2021/06/06 09:31:20;;;;;;;61.43;43.47;;;15.70;99.90;;;;;;5090051;28;20465;-79
2021/06/06 09:33:53;;;;;;;62.93;42.80;;;15.70;99.90;;;;;;5083464;28;20465;-78
2021/06/06 09:36:32;;;;;;;62.37;43.43;;;15.70;99.90;;;;;;5075263;28;20442;-78
2021/06/06 09:39:01;;;;;;;66.03;46.07;;;15.60;99.90;;;;;;5075387;28;20458;-79
2021/06/06 09:41:34;;;;;;;69.37;46.67;;;15.70;99.90;;;;;;5074004;28;20509;-78
2021/06/06 09:44:13;;;;;;;65.10;44.83;;;15.60;99.90;;;;;;5072559;28;20446;-78
2021/06/06 09:46:40;;;;;;;72.47;47.20;;;15.60;99.90;;;;;;5077693;28;20434;-79
2021/06/06 09:49:29;;;;;;;70.63;50.43;;;15.70;99.90;;;;;;5071692;28;20481;-79
2021/06/06 09:52:44;;;;;;;73.20;49.13;;;15.60;99.90;;;;;;5071161;28;20472;-77
2021/06/06 09:55:20;;;;;;;69.90;47.37;;;15.60;99.90;;;;;;5075541;28;20500;-79
2021/06/06 09:57:50;;;;;;;73.47;48.60;;;15.60;99.90;;;;;;5084949;28;20462;-78
2021/06/06 10:00:19;;;;;;;72.27;48.53;;;15.60;99.90;;;;;;5076484;28;20822;-79
2021/06/06 10:02:51;;;;;;;63.30;46.37;;;15.60;99.90;;;;;;5084798;28;20418;-79
2021/06/06 10:05:32;;;;;;;58.70;43.87;;;15.60;99.90;;;;;;5073559;28;20458;-79
2021/06/06 10:08:07;;;;;;;68.87;46.50;;;15.70;99.90;;;;;;5083704;28;20537;-79
2021/06/06 10:10:43;;;;;;;66.50;45.70;;;15.80;99.90;;;;;;5070819;28;20505;-78
2021/06/06 10:13:18;;;;;;;68.83;44.80;;;15.80;99.90;;;;;;5074981;28;20878;-79
2021/06/06 10:15:50;;;;;;;67.07;46.17;;;15.80;99.90;;;;;;5068203;28;20474;-79
2021/06/06 10:18:33;;;;;;;67.13;46.07;;;15.80;99.90;;;;;;5078250;28;20454;-79
2021/06/06 10:21:17;;;;;;;65.77;46.07;;;15.90;99.90;;;;;;5077798;28;20463;-79
2021/06/06 10:24:03;;;;;;;62.57;43.33;;;16.00;99.90;;;;;;5056519;28;20455;-79
2021/06/06 10:26:36;;;;;;;60.60;42.83;;;16.10;99.90;;;;;;5062228;28;20431;-79
2021/06/06 10:29:33;;;;;;;54.40;39.47;;;16.00;99.90;;;;;;5067801;28;20446;-77
2021/06/06 10:32:18;;;;;;;58.70;42.70;;;16.10;99.90;;;;;;5050582;28;20439;-79
2021/06/06 10:35:12;;;;;;;51.40;37.30;;;16.10;99.90;;;;;;5050324;28;20463;-78
2021/06/06 10:37:47;;;;;;;48.43;37.10;;;16.20;99.90;;;;;;5065320;28;20489;-79
2021/06/06 10:40:43;;;;;;;50.03;39.93;;;16.30;99.90;;;;;;5081216;28;20463;-79
2021/06/06 10:43:28;;;;;;;44.40;33.93;;;16.30;99.90;;;;;;5070837;28;20466;-79
2021/06/06 10:46:07;;;;;;;54.63;39.73;;;16.40;99.90;;;;;;5051022;28;21107;-78
2021/06/06 10:49:01;;;;;;;49.67;40.33;;;16.50;99.90;;;;;;5050422;28;20948;-78
2021/06/06 10:51:50;;;;;;;54.83;39.17;;;16.50;99.90;;;;;;5061651;28;20489;-79
2021/06/06 10:54:32;;;;;;;47.57;38.70;;;16.50;99.90;;;;;;5087898;28;20461;-79
2021/06/06 10:57:05;;;;;;;47.27;37.20;;;16.50;99.90;;;;;;5089704;28;20974;-78
2021/06/06 10:59:41;;;;;;;45.27;36.17;;;16.50;99.90;;;;;;5088536;28;20481;-78
2021/06/06 11:02:25;;;;;;;42.80;33.60;;;16.60;99.90;;;;;;5088199;28;20523;-79
2021/06/06 11:04:55;;;;;;;42.43;34.07;;;16.70;99.90;;;;;;5077036;28;20465;-79
2021/06/06 11:07:35;;;;;;;40.53;34.00;;;16.70;99.90;;;;;;5075474;28;20986;-79
2021/06/06 11:10:20;;;;;;;41.97;33.47;;;16.90;99.90;;;;;;5089786;28;20974;-79
2021/06/06 11:12:49;;;;;;;40.40;33.30;;;16.90;99.90;;;;;;5063980;28;20434;-79
2021/06/06 11:15:38;;;;;;;42.87;33.17;;;16.90;99.90;;;;;;5075198;28;20470;-78
2021/06/06 11:18:16;;;;;;;39.77;33.70;;;17.00;99.90;;;;;;5053192;28;20464;-79
2021/06/06 11:20:55;;;;;;;46.40;34.13;;;16.90;99.90;;;;;;5068756;28;20493;-79
2021/06/06 11:23:46;;;;;;;47.43;35.00;;;16.90;99.90;;;;;;5064537;28;20541;-77
2021/06/06 11:26:22;;;;;;;43.77;34.20;;;16.90;99.90;;;;;;5061148;28;20466;-77
2021/06/06 11:29:04;;;;;;;44.70;35.53;;;16.90;99.90;;;;;;5083537;28;20827;-80
2021/06/06 11:31:35;;;;;;;43.43;34.47;;;16.80;99.90;;;;;;5079134;28;20473;-79
2021/06/06 11:34:21;;;;;;;46.00;36.10;;;16.80;99.90;;;;;;5078552;28;20429;-80
2021/06/06 11:36:48;;;;;;;41.13;33.23;;;16.90;99.90;;;;;;5072622;28;20777;-80
2021/06/06 11:39:36;;;;;;;41.90;35.50;;;16.90;99.90;;;;;;5084148;28;20491;-80
2021/06/06 11:42:16;;;;;;;46.30;36.73;;;16.90;99.90;;;;;;5062179;28;20466;-79
2021/06/06 11:45:18;;;;;;;43.43;36.60;;;16.90;99.90;;;;;;5080257;28;20461;-80
2021/06/06 11:47:49;;;;;;;37.70;33.03;;;17.00;99.90;;;;;;5054231;28;20453;-80
2021/06/06 11:50:48;;;;;;;41.27;34.00;;;17.00;99.90;;;;;;5072412;28;20497;-80
2021/06/06 11:53:25;;;;;;;42.00;34.33;;;17.00;99.90;;;;;;5069810;28;20870;-80
2021/06/06 11:56:04;;;;;;;41.60;33.27;;;17.10;99.90;;;;;;5075422;28;20544;-79
2021/06/06 11:58:52;;;;;;;44.03;35.60;;;17.10;99.90;;;;;;5078104;28;20960;-80
2021/06/06 12:01:25;;;;;;;38.40;32.63;;;17.20;99.90;;;;;;5091695;28;20533;-79
2021/06/06 12:04:09;;;;;;;41.23;32.67;;;17.20;99.90;;;;;;5074497;28;20899;-80
2021/06/06 12:06:39;;;;;;;40.60;32.27;;;17.30;99.90;;;;;;5060435;28;20495;-79
2021/06/06 12:09:24;;;;;;;39.13;32.50;;;17.30;99.90;;;;;;5083046;28;20456;-80
2021/06/06 12:12:04;;;;;;;35.77;31.93;;;17.30;99.90;;;;;;5093090;28;20449;-80
2021/06/06 12:14:33;;;;;;;40.53;33.80;;;17.30;99.90;;;;;;5062899;28;20464;-79
2021/06/06 12:17:16;;;;;;;36.77;31.83;;;17.30;99.90;;;;;;5083970;28;20521;-80
2021/06/06 12:19:56;;;;;;;36.93;30.57;;;17.30;99.90;;;;;;5067356;28;21043;-80
2021/06/06 12:22:38;;;;;;;35.70;31.23;;;17.20;99.90;;;;;;5080884;28;20588;-80
2021/06/06 12:25:20;;;;;;;37.93;32.40;;;17.20;99.90;;;;;;5072445;28;20482;-80
2021/06/06 12:28:03;;;;;;;39.40;29.83;;;17.20;99.90;;;;;;5070650;28;20974;-79
2021/06/06 12:30:53;;;;;;;35.10;28.93;;;17.30;99.90;;;;;;5074959;28;20851;-80
2021/06/06 12:33:42;;;;;;;32.47;28.30;;;17.30;99.90;;;;;;5090365;28;20803;-79
2021/06/06 12:36:13;;;;;;;34.80;28.83;;;17.30;99.90;;;;;;5049748;28;20521;-79
2021/06/06 12:38:44;;;;;;;35.20;29.27;;;17.30;99.90;;;;;;5060333;28;20503;-79
2021/06/06 12:41:13;;;;;;;32.43;28.90;;;17.50;99.90;;;;;;5087062;28;20462;-80
2021/06/06 12:43:49;;;;;;;33.63;27.53;;;17.50;99.90;;;;;;5079021;28;20516;-79
2021/06/06 12:46:17;;;;;;;29.63;26.47;;;17.50;99.90;;;;;;5073455;28;20468;-79
2021/06/06 12:49:06;;;;;;;32.33;26.97;;;17.40;99.90;;;;;;5072229;28;20673;-79
2021/06/06 12:51:50;;;;;;;29.20;26.17;;;17.40;99.90;;;;;;5075889;28;20536;-80
2021/06/06 12:54:19;;;;;;;27.50;23.57;;;17.50;99.90;;;;;;5077191;28;20460;-79
2021/06/06 12:56:48;;;;;;;26.67;23.77;;;17.60;99.90;;;;;;5080032;28;20460;-79
2021/06/06 12:59:25;;;;;;;28.80;23.17;;;17.70;99.90;;;;;;5085075;28;20796;-79
2021/06/06 13:02:06;;;;;;;31.10;24.60;;;17.70;99.90;;;;;;5072616;28;20450;-79
2021/06/06 13:04:33;;;;;;;26.53;23.60;;;17.70;99.90;;;;;;5058177;28;20525;-79
2021/06/06 13:07:03;;;;;;;25.10;22.37;;;17.70;99.90;;;;;;5079163;28;21336;-79
2021/06/06 13:09:59;;;;;;;26.17;23.13;;;17.80;99.90;;;;;;5082641;28;20461;-79